Time;durP1;ratioP1;P1;durP2;ratioP2;P2;SDS_P1;SDS_P2;PMS_P1;PMS_P2;Temp;Humidity;BMP_temperature;BMP_pressure;BME280_temperature;BME280_humidity;BME280_pressure;Samples;Min_cycle;Max_cycle;Signal;HPM_P1;HPM_P2
2023/09/07 04:23:26;;;;;;;2.40;1.95;;;;;;;;;;5106321;27;20149;-82
2023/09/07 04:25:51;;;;;;;3.25;2.33;;;;;;;;;;5093748;28;20503;-83
2023/09/07 04:28:17;;;;;;;3.78;2.13;;;;;;;;;;5110685;28;20057;-81
2023/09/07 04:30:42;;;;;;;2.30;1.73;;;;;;;;;;5093405;28;20536;-80
2023/09/07 04:33:08;;;;;;;1.77;1.20;;;;;;;;;;5092829;28;20050;-80
2023/09/07 04:35:33;;;;;;;2.70;2.17;;;;;;;;;;5111458;28;20034;-81
2023/09/07 04:37:59;;;;;;;2.63;1.75;;;;;;;;;;5111877;28;20621;-83
2023/09/07 04:40:25;;;;;;;3.15;2.40;;;;;;;;;;5112988;28;20092;-82
2023/09/07 04:42:50;;;;;;;1.75;1.55;;;;;;;;;;5106688;28;20052;-82
2023/09/07 04:45:16;;;;;;;3.38;2.00;;;;;;;;;;5108138;28;20019;-80
2023/09/07 04:47:41;;;;;;;1.55;1.30;;;;;;;;;;5106472;28;20551;-81
2023/09/07 04:50:07;;;;;;;1.55;1.23;;;;;;;;;;5106302;28;20490;-81
2023/09/07 04:52:34;;;;;;;1.27;1.10;;;;;;;;;;5105934;28;20050;-81
2023/09/07 04:55:00;;;;;;;2.70;1.92;;;;;;;;;;5102511;28;20036;-82
2023/09/07 04:57:25;;;;;;;2.60;1.88;;;;;;;;;;5105601;28;20081;-81
2023/09/07 04:59:52;;;;;;;2.38;1.40;;;;;;;;;;5105215;28;20089;-83
2023/09/07 05:02:18;;;;;;;1.67;1.40;;;;;;;;;;5090703;28;20476;-85
2023/09/07 05:04:44;;;;;;;2.90;1.75;;;;;;;;;;5090112;28;20441;-83
2023/09/07 05:07:10;;;;;;;2.22;1.38;;;;;;;;;;5086796;28;20111;-83
2023/09/07 05:09:35;;;;;;;3.55;2.42;;;;;;;;;;5106845;28;20165;-82
2023/09/07 05:12:01;;;;;;;2.33;1.65;;;;;;;;;;5086601;28;20070;-82
2023/09/07 05:14:26;;;;;;;2.53;1.70;;;;;;;;;;5106407;28;20019;-82
2023/09/07 05:16:52;;;;;;;2.58;1.80;;;;;;;;;;5104938;28;20030;-83
2023/09/07 05:19:18;;;;;;;2.00;1.45;;;;;;;;;;5105184;28;20051;-83
2023/09/07 05:21:43;;;;;;;1.92;1.38;;;;;;;;;;5106077;28;20127;-86
2023/09/07 05:24:09;;;;;;;2.45;2.10;;;;;;;;;;5086240;28;20032;-81
2023/09/07 05:26:34;;;;;;;3.00;1.88;;;;;;;;;;5085874;28;20035;-83
2023/09/07 05:29:00;;;;;;;3.35;2.00;;;;;;;;;;5103352;28;20110;-86
2023/09/07 05:31:25;;;;;;;2.20;1.42;;;;;;;;;;5087925;28;20055;-83
2023/09/07 05:33:51;;;;;;;2.55;2.05;;;;;;;;;;5097422;28;20384;-83
2023/09/07 05:36:17;;;;;;;1.75;1.65;;;;;;;;;;5090129;28;20525;-82
2023/09/07 05:38:42;;;;;;;1.85;1.52;;;;;;;;;;5091525;28;20028;-83
2023/09/07 05:41:08;;;;;;;2.88;1.95;;;;;;;;;;5076013;28;20063;-83
2023/09/07 05:43:33;;;;;;;1.92;1.45;;;;;;;;;;5070280;28;20043;-82
2023/09/07 05:45:59;;;;;;;1.50;1.27;;;;;;;;;;5083082;28;20028;-82
2023/09/07 05:48:24;;;;;;;2.72;2.15;;;;;;;;;;5091034;28;20039;-83
2023/09/07 05:50:50;;;;;;;2.42;2.22;;;;;;;;;;5091790;28;20035;-84
2023/09/07 05:53:15;;;;;;;1.58;1.48;;;;;;;;;;5088652;28;20031;-81
2023/09/07 05:55:40;;;;;;;3.33;2.20;;;;;;;;;;5091009;28;20039;-84
2023/09/07 05:58:07;;;;;;;2.40;1.45;;;;;;;;;;5073733;28;20038;-83
2023/09/07 06:00:35;;;;;;;2.50;1.70;;;;;;;;;;5073762;28;20032;-82
2023/09/07 06:03:01;;;;;;;1.58;1.35;;;;;;;;;;5071663;28;20111;-85
2023/09/07 06:05:26;;;;;;;5.22;1.85;;;;;;;;;;5072531;28;20126;-83
2023/09/07 06:07:51;;;;;;;2.05;1.65;;;;;;;;;;5092540;28;20032;-82
2023/09/07 06:10:19;;;;;;;2.15;1.52;;;;;;;;;;5092964;28;20097;-83
2023/09/07 06:13:09;;;;;;;3.00;2.30;;;;;;;;;;5072514;28;20111;-84
2023/09/07 06:15:35;;;;;;;1.77;1.60;;;;;;;;;;5085513;28;20499;-82
2023/09/07 06:18:03;;;;;;;4.13;1.95;;;;;;;;;;5074517;28;20050;-83
2023/09/07 06:20:46;;;;;;;2.95;1.75;;;;;;;;;;5068472;28;20020;-82
2023/09/07 06:23:14;;;;;;;3.17;2.08;;;;;;;;;;5073892;28;20465;-82
2023/09/07 06:25:40;;;;;;;2.55;1.50;;;;;;;;;;5084084;28;20460;-83
2023/09/07 06:28:05;;;;;;;2.80;1.65;;;;;;;;;;5090227;28;20032;-82
2023/09/07 06:30:36;;;;;;;2.20;1.60;;;;;;;;;;5087878;28;20032;-81
2023/09/07 06:33:02;;;;;;;6.22;2.70;;;;;;;;;;5070888;28;20027;-84
2023/09/07 06:35:27;;;;;;;2.85;2.20;;;;;;;;;;5092556;28;20024;-84
2023/09/07 06:37:53;;;;;;;2.30;1.95;;;;;;;;;;5065699;28;20032;-84
2023/09/07 06:40:22;;;;;;;3.03;1.65;;;;;;;;;;5071220;28;20031;-84
2023/09/07 06:42:50;;;;;;;2.80;1.92;;;;;;;;;;5070615;28;20028;-85
2023/09/07 06:45:29;;;;;;;1.98;1.70;;;;;;;;;;5068408;28;20068;-86
2023/09/07 06:47:54;;;;;;;4.65;2.70;;;;;;;;;;5088025;28;20024;-85
2023/09/07 06:50:20;;;;;;;2.88;1.83;;;;;;;;;;5093244;28;20365;-85
2023/09/07 06:52:49;;;;;;;2.35;1.58;;;;;;;;;;5091943;28;20471;-83
2023/09/07 06:55:15;;;;;;;2.13;1.60;;;;;;;;;;5092220;28;20531;-85
2023/09/07 06:57:41;;;;;;;2.65;1.65;;;;;;;;;;5087715;28;20116;-84
2023/09/07 07:00:16;;;;;;;3.60;2.10;;;;;;;;;;5091365;28;20515;-81
2023/09/07 07:02:41;;;;;;;2.75;1.63;;;;;;;;;;5072827;28;20020;-80
2023/09/07 07:05:07;;;;;;;3.10;1.73;;;;;;;;;;5087499;28;20039;-80
2023/09/07 07:07:34;;;;;;;7.75;2.53;;;;;;;;;;5088859;28;20073;-80
2023/09/07 07:09:59;;;;;;;3.35;2.15;;;;;;;;;;5073550;28;20491;-80
2023/09/07 07:12:26;;;;;;;1.42;1.15;;;;;;;;;;5073431;28;20055;-80
2023/09/07 07:14:51;;;;;;;6.03;1.80;;;;;;;;;;5073633;28;20647;-80
2023/09/07 07:17:17;;;;;;;2.50;1.95;;;;;;;;;;5090180;28;20078;-88
2023/09/07 07:19:45;;;;;;;1.38;1.20;;;;;;;;;;5067629;28;20028;-87
2023/09/07 07:22:12;;;;;;;9.90;1.67;;;;;;;;;;5089903;28;20048;-83
2023/09/07 07:24:37;;;;;;;2.92;1.90;;;;;;;;;;5092128;28;20036;-85
2023/09/07 07:27:03;;;;;;;3.80;2.63;;;;;;;;;;5085945;28;20038;-85
2023/09/07 07:29:29;;;;;;;3.08;1.92;;;;;;;;;;5077964;28;20024;-86
2023/09/07 07:31:54;;;;;;;1.95;1.52;;;;;;;;;;5066896;28;20124;-87
2023/09/07 07:34:19;;;;;;;1.98;1.73;;;;;;;;;;5087341;28;20042;-86
2023/09/07 07:36:45;;;;;;;2.38;1.83;;;;;;;;;;5071654;28;20016;-83
2023/09/07 07:39:10;;;;;;;2.08;1.42;;;;;;;;;;5072463;28;20077;-83
2023/09/07 07:41:36;;;;;;;1.88;1.58;;;;;;;;;;5072606;28;20384;-83
2023/09/07 07:44:01;;;;;;;3.53;2.20;;;;;;;;;;5091204;28;20023;-84
2023/09/07 07:46:26;;;;;;;4.05;2.42;;;;;;;;;;5068009;28;20472;-83
2023/09/07 07:48:52;;;;;;;3.97;2.50;;;;;;;;;;5088888;28;20027;-82
2023/09/07 07:51:17;;;;;;;3.08;2.05;;;;;;;;;;5092224;28;20028;-81
2023/09/07 07:53:43;;;;;;;17.38;2.58;;;;;;;;;;5091177;28;20114;-83
2023/09/07 07:56:16;;;;;;;2.60;1.85;;;;;;;;;;5070630;28;20032;-82
2023/09/07 07:58:42;;;;;;;2.97;2.13;;;;;;;;;;5084595;28;20039;-82
2023/09/07 08:01:20;;;;;;;5.43;3.20;;;;;;;;;;5085340;28;20035;-83
2023/09/07 08:03:48;;;;;;;2.58;2.08;;;;;;;;;;5079926;28;20404;-88
2023/09/07 08:06:14;;;;;;;2.80;1.90;;;;;;;;;;5076302;28;20032;-83
2023/09/07 08:08:40;;;;;;;2.05;1.75;;;;;;;;;;5065371;28;20061;-82
2023/09/07 08:11:05;;;;;;;2.15;1.70;;;;;;;;;;5064713;28;20237;-83
2023/09/07 08:13:35;;;;;;;2.63;1.80;;;;;;;;;;5084470;28;20495;-82
2023/09/07 08:16:06;;;;;;;3.08;2.00;;;;;;;;;;5064200;28;20080;-83
2023/09/07 08:18:33;;;;;;;2.42;1.80;;;;;;;;;;5081969;28;20380;-82
2023/09/07 08:20:59;;;;;;;2.20;1.98;;;;;;;;;;5086696;28;20034;-81
2023/09/07 08:23:25;;;;;;;2.00;1.80;;;;;;;;;;5062185;28;20043;-82
2023/09/07 08:25:52;;;;;;;9.63;2.50;;;;;;;;;;5069015;28;20024;-81
2023/09/07 08:28:18;;;;;;;2.65;1.92;;;;;;;;;;5070941;28;20024;-82
2023/09/07 08:30:45;;;;;;;2.35;2.10;;;;;;;;;;5071070;28;20020;-81
2023/09/07 08:33:32;;;;;;;2.22;1.80;;;;;;;;;;5052523;28;20032;-82
2023/09/07 08:36:00;;;;;;;2.50;1.88;;;;;;;;;;5053018;28;20043;-81
2023/09/07 08:38:27;;;;;;;2.78;1.65;;;;;;;;;;5050459;28;20027;-82
2023/09/07 08:41:00;;;;;;;2.92;2.05;;;;;;;;;;5072051;28;20048;-82
2023/09/07 08:43:27;;;;;;;2.17;1.38;;;;;;;;;;5049241;28;20405;-80
2023/09/07 08:46:04;;;;;;;2.55;1.58;;;;;;;;;;5052439;28;20028;-81
2023/09/07 08:48:30;;;;;;;2.95;2.22;;;;;;;;;;5068648;28;20078;-82
2023/09/07 08:51:02;;;;;;;3.58;2.35;;;;;;;;;;5047522;28;20036;-82
2023/09/07 08:53:31;;;;;;;1.95;1.60;;;;;;;;;;5065823;28;20083;-81
2023/09/07 08:55:56;;;;;;;3.03;2.08;;;;;;;;;;5070559;28;20036;-80
2023/09/07 08:58:22;;;;;;;3.45;2.00;;;;;;;;;;5065791;28;20020;-80
2023/09/07 09:00:49;;;;;;;2.30;1.42;;;;;;;;;;5058951;28;20028;-82
2023/09/07 09:03:14;;;;;;;1.48;1.20;;;;;;;;;;5065249;28;20486;-82
2023/09/07 09:05:41;;;;;;;1.85;1.63;;;;;;;;;;5063456;28;20082;-81
2023/09/07 09:08:06;;;;;;;1.92;1.70;;;;;;;;;;5067530;28;20029;-81
2023/09/07 09:10:32;;;;;;;1.95;1.50;;;;;;;;;;5056185;28;20028;-82
2023/09/07 09:12:59;;;;;;;2.38;1.88;;;;;;;;;;5068912;28;20043;-83
2023/09/07 09:15:26;;;;;;;3.67;2.70;;;;;;;;;;5053920;28;20413;-83
2023/09/07 09:17:53;;;;;;;3.97;2.10;;;;;;;;;;5060711;28;20025;-81
2023/09/07 09:20:25;;;;;;;5.10;2.47;;;;;;;;;;5051420;28;20029;-80
2023/09/07 09:22:54;;;;;;;2.08;1.35;;;;;;;;;;5060525;28;20048;-82
2023/09/07 09:25:20;;;;;;;1.75;1.30;;;;;;;;;;5070574;28;20028;-80
2023/09/07 09:27:46;;;;;;;2.15;1.58;;;;;;;;;;5050522;28;20051;-81
2023/09/07 09:30:15;;;;;;;1.90;1.30;;;;;;;;;;5072845;28;20039;-82
2023/09/07 09:32:41;;;;;;;1.83;1.42;;;;;;;;;;5068783;28;20020;-82
2023/09/07 09:35:07;;;;;;;3.03;1.20;;;;;;;;;;5068937;28;20036;-82
2023/09/07 09:37:33;;;;;;;2.13;1.67;;;;;;;;;;5068104;28;20109;-81
2023/09/07 09:40:01;;;;;;;2.00;1.50;;;;;;;;;;5066978;28;20486;-82
2023/09/07 09:42:27;;;;;;;2.67;1.92;;;;;;;;;;5072946;28;20059;-85
2023/09/07 09:44:55;;;;;;;2.50;1.92;;;;;;;;;;5051293;28;20071;-82
2023/09/07 09:47:21;;;;;;;1.98;1.17;;;;;;;;;;5065723;28;20788;-81
2023/09/07 09:49:49;;;;;;;2.83;1.65;;;;;;;;;;5050837;28;20032;-84
2023/09/07 09:52:16;;;;;;;3.30;1.75;;;;;;;;;;5070053;28;20047;-85
2023/09/07 09:54:42;;;;;;;2.05;1.63;;;;;;;;;;5049711;28;20426;-84
2023/09/07 09:57:07;;;;;;;2.33;1.60;;;;;;;;;;5071727;28;20383;-82
2023/09/07 09:59:34;;;;;;;1.95;1.23;;;;;;;;;;5071538;28;20024;-84
2023/09/07 10:02:01;;;;;;;2.17;1.50;;;;;;;;;;5052893;28;20027;-83
2023/09/07 10:04:29;;;;;;;1.70;1.10;;;;;;;;;;5069661;28;20036;-84
2023/09/07 10:06:56;;;;;;;1.35;1.20;;;;;;;;;;5072862;28;20070;-85
2023/09/07 10:09:22;;;;;;;1.88;1.30;;;;;;;;;;5053599;28;20365;-83
2023/09/07 10:11:54;;;;;;;3.75;1.58;;;;;;;;;;5070000;28;20039;-82
2023/09/07 10:14:20;;;;;;;1.45;1.02;;;;;;;;;;5071085;28;20051;-85
2023/09/07 10:16:48;;;;;;;2.85;1.77;;;;;;;;;;5054690;28;20464;-81
2023/09/07 10:19:24;;;;;;;2.05;1.65;;;;;;;;;;5050752;28;21300;-84
2023/09/07 10:21:52;;;;;;;2.15;1.48;;;;;;;;;;5051331;28;20041;-82
2023/09/07 10:24:35;;;;;;;1.77;1.45;;;;;;;;;;5051885;28;20041;-84
2023/09/07 10:27:08;;;;;;;2.10;1.13;;;;;;;;;;5069292;28;20035;-82
2023/09/07 10:29:52;;;;;;;1.20;1.10;;;;;;;;;;5069370;28;20028;-86
2023/09/07 10:32:17;;;;;;;1.98;1.52;;;;;;;;;;5052114;28;20021;-82
2023/09/07 10:34:43;;;;;;;1.60;1.25;;;;;;;;;;5069864;28;20521;-84
2023/09/07 10:37:19;;;;;;;4.68;1.42;;;;;;;;;;5070663;28;20524;-82
2023/09/07 10:39:45;;;;;;;1.75;1.13;;;;;;;;;;5071438;28;20617;-82
2023/09/07 10:42:21;;;;;;;4.15;1.40;;;;;;;;;;5067369;28;20016;-82
2023/09/07 10:44:46;;;;;;;2.03;1.83;;;;;;;;;;5071143;28;20053;-84
2023/09/07 10:47:12;;;;;;;1.58;1.25;;;;;;;;;;5066921;28;20115;-82
2023/09/07 10:49:38;;;;;;;2.28;1.17;;;;;;;;;;5070054;28;20143;-82
2023/09/07 10:52:04;;;;;;;1.63;1.23;;;;;;;;;;5069185;28;20450;-82
2023/09/07 10:54:29;;;;;;;3.25;2.03;;;;;;;;;;5066043;28;20031;-82
2023/09/07 10:56:57;;;;;;;1.88;1.65;;;;;;;;;;5068146;28;20380;-83
2023/09/07 10:59:23;;;;;;;2.88;1.45;;;;;;;;;;5052126;28;20033;-82
2023/09/07 11:01:48;;;;;;;2.17;1.40;;;;;;;;;;5069231;28;20055;-81
2023/09/07 11:04:17;;;;;;;2.13;1.58;;;;;;;;;;5065696;28;20033;-81
2023/09/07 11:06:42;;;;;;;2.47;1.67;;;;;;;;;;5048782;28;20036;-82
2023/09/07 11:09:10;;;;;;;3.20;1.85;;;;;;;;;;5069481;28;20025;-84
2023/09/07 11:11:36;;;;;;;2.40;1.67;;;;;;;;;;5050744;28;20441;-82
2023/09/07 11:14:05;;;;;;;1.38;1.27;;;;;;;;;;5051174;28;20089;-84
2023/09/07 11:16:33;;;;;;;3.58;2.22;;;;;;;;;;5069850;28;20040;-83
2023/09/07 11:19:05;;;;;;;2.15;1.70;;;;;;;;;;5066623;28;20032;-81
2023/09/07 11:21:32;;;;;;;2.28;1.48;;;;;;;;;;5071336;28;20484;-82
2023/09/07 11:23:58;;;;;;;2.78;2.28;;;;;;;;;;5081605;28;20042;-84
2023/09/07 11:26:23;;;;;;;3.35;1.83;;;;;;;;;;5083140;28;20123;-81
2023/09/07 11:28:49;;;;;;;3.05;2.08;;;;;;;;;;5065954;28;20088;-83
2023/09/07 11:31:19;;;;;;;3.20;2.30;;;;;;;;;;5070955;28;20023;-80
2023/09/07 11:33:44;;;;;;;2.33;1.55;;;;;;;;;;5085953;28;20102;-83
2023/09/07 11:36:09;;;;;;;2.63;1.73;;;;;;;;;;5067861;28;20434;-83
2023/09/07 11:38:37;;;;;;;2.83;1.83;;;;;;;;;;5070575;28;20035;-84
2023/09/07 11:41:03;;;;;;;2.63;1.55;;;;;;;;;;5087253;28;20085;-83
2023/09/07 11:43:28;;;;;;;2.95;1.40;;;;;;;;;;5083018;28;20031;-82
2023/09/07 11:45:54;;;;;;;1.92;1.63;;;;;;;;;;5090057;28;20463;-84
2023/09/07 11:48:19;;;;;;;3.55;2.35;;;;;;;;;;5087385;28;20028;-82
2023/09/07 11:50:45;;;;;;;2.03;1.60;;;;;;;;;;5070917;28;20106;-83
2023/09/07 11:53:10;;;;;;;2.53;1.90;;;;;;;;;;5086085;28;20028;-84
2023/09/07 11:55:37;;;;;;;2.47;1.23;;;;;;;;;;5086092;28;20639;-83
2023/09/07 11:58:04;;;;;;;1.88;1.38;;;;;;;;;;5067307;28;20111;-83
2023/09/07 12:00:31;;;;;;;1.98;1.73;;;;;;;;;;5090071;28;20048;-83
2023/09/07 12:02:57;;;;;;;2.28;1.40;;;;;;;;;;5070766;28;20491;-81
2023/09/07 12:05:23;;;;;;;1.75;1.38;;;;;;;;;;5087933;28;20054;-83
2023/09/07 12:07:48;;;;;;;3.58;1.73;;;;;;;;;;5091048;28;20028;-82
2023/09/07 12:10:13;;;;;;;2.50;1.63;;;;;;;;;;5090246;28;20031;-80
2023/09/07 12:12:40;;;;;;;2.53;1.70;;;;;;;;;;5086714;28;20420;-81
2023/09/07 12:15:06;;;;;;;1.70;1.17;;;;;;;;;;5071343;28;20118;-81
2023/09/07 12:17:32;;;;;;;2.25;1.55;;;;;;;;;;5085597;28;20027;-81
2023/09/07 12:19:58;;;;;;;2.97;1.65;;;;;;;;;;5071245;28;20044;-81
2023/09/07 12:22:23;;;;;;;1.75;1.30;;;;;;;;;;5090616;28;20044;-80
2023/09/07 12:24:49;;;;;;;1.73;1.13;;;;;;;;;;5073092;28;20111;-80
2023/09/07 12:27:15;;;;;;;4.63;1.83;;;;;;;;;;5090874;28;20023;-79
2023/09/07 12:29:41;;;;;;;2.47;1.80;;;;;;;;;;5072600;28;20024;-82
2023/09/07 12:32:06;;;;;;;1.70;1.38;;;;;;;;;;5072873;28;20035;-80
2023/09/07 12:34:32;;;;;;;2.05;1.52;;;;;;;;;;5090801;28;20043;-81
2023/09/07 12:36:57;;;;;;;1.75;1.20;;;;;;;;;;5087145;28;20114;-80
2023/09/07 12:39:23;;;;;;;2.88;1.65;;;;;;;;;;5090882;28;20587;-80
2023/09/07 12:41:48;;;;;;;2.17;1.50;;;;;;;;;;5091196;28;20066;-79
2023/09/07 12:44:14;;;;;;;1.75;1.00;;;;;;;;;;5089391;28;20024;-80
2023/09/07 12:46:41;;;;;;;1.83;1.55;;;;;;;;;;5091615;28;20028;-82
2023/09/07 12:49:07;;;;;;;2.40;1.60;;;;;;;;;;5072107;28;20399;-82
2023/09/07 12:51:33;;;;;;;6.30;2.03;;;;;;;;;;5095628;28;20020;-84
2023/09/07 12:53:58;;;;;;;2.88;1.67;;;;;;;;;;5095261;28;20039;-82
2023/09/07 12:56:23;;;;;;;2.00;1.48;;;;;;;;;;5091552;28;20103;-81
2023/09/07 12:58:52;;;;;;;2.47;1.63;;;;;;;;;;5095074;28;20032;-83
2023/09/07 13:01:18;;;;;;;3.47;1.52;;;;;;;;;;5075096;28;20081;-83
2023/09/07 13:03:43;;;;;;;2.10;1.35;;;;;;;;;;5078223;28;20028;-84
2023/09/07 13:06:09;;;;;;;1.88;1.05;;;;;;;;;;5088819;28;20089;-84
2023/09/07 13:08:34;;;;;;;1.60;1.30;;;;;;;;;;5075933;28;20027;-84
2023/09/07 13:11:00;;;;;;;2.72;1.95;;;;;;;;;;5095192;28;20102;-83
2023/09/07 13:13:29;;;;;;;3.67;1.92;;;;;;;;;;5094961;28;20467;-84
2023/09/07 13:15:58;;;;;;;1.65;1.27;;;;;;;;;;5091762;28;20024;-84
2023/09/07 13:18:24;;;;;;;1.83;1.35;;;;;;;;;;5077861;28;20036;-85
2023/09/07 13:20:53;;;;;;;2.88;1.20;;;;;;;;;;5094845;28;20019;-85
2023/09/07 13:23:19;;;;;;;3.45;2.25;;;;;;;;;;5056685;28;20048;-84
2023/09/07 13:25:44;;;;;;;1.80;1.63;;;;;;;;;;5052463;28;20024;-83
2023/09/07 13:28:09;;;;;;;3.40;1.75;;;;;;;;;;5063891;28;20093;-83
2023/09/07 13:30:35;;;;;;;3.00;2.13;;;;;;;;;;5066754;28;20016;-82
2023/09/07 13:33:00;;;;;;;1.67;1.20;;;;;;;;;;5064900;28;20039;-80
2023/09/07 13:35:26;;;;;;;1.13;1.02;;;;;;;;;;5067881;28;20099;-83
2023/09/07 13:37:52;;;;;;;2.10;1.58;;;;;;;;;;5064461;28;20024;-82
2023/09/07 13:40:19;;;;;;;1.77;1.20;;;;;;;;;;5067318;28;20032;-83
2023/09/07 13:42:45;;;;;;;4.32;1.90;;;;;;;;;;5048808;28;20666;-81
2023/09/07 13:45:10;;;;;;;2.00;1.27;;;;;;;;;;5066623;28;20025;-82
2023/09/07 13:47:36;;;;;;;2.75;1.35;;;;;;;;;;5048313;28;20476;-81
2023/09/07 13:50:01;;;;;;;1.83;1.08;;;;;;;;;;5062620;28;20024;-80
2023/09/07 13:52:26;;;;;;;1.35;1.20;;;;;;;;;;5048411;28;20037;-82
2023/09/07 13:54:52;;;;;;;2.35;1.48;;;;;;;;;;5062520;28;20490;-81
2023/09/07 13:57:17;;;;;;;1.33;1.05;;;;;;;;;;5063061;28;20388;-81
2023/09/07 13:59:43;;;;;;;3.10;1.42;;;;;;;;;;5063260;28;20020;-82
2023/09/07 14:02:08;;;;;;;3.08;1.25;;;;;;;;;;5065525;28;20035;-84
2023/09/07 14:04:34;;;;;;;1.85;1.15;;;;;;;;;;5061140;28;20051;-80
2023/09/07 14:06:59;;;;;;;3.25;1.35;;;;;;;;;;5065718;28;20028;-81
2023/09/07 14:09:24;;;;;;;1.50;1.02;;;;;;;;;;5066054;28;20107;-82
2023/09/07 14:11:50;;;;;;;3.45;1.40;;;;;;;;;;5067921;28;20502;-80
2023/09/07 14:14:16;;;;;;;1.67;1.13;;;;;;;;;;5044149;28;20020;-82
2023/09/07 14:16:42;;;;;;;2.72;1.60;;;;;;;;;;5072558;28;20099;-81
2023/09/07 14:19:07;;;;;;;2.47;1.40;;;;;;;;;;5068859;28;20103;-81
2023/09/07 14:21:32;;;;;;;2.25;1.00;;;;;;;;;;5073295;28;20062;-83
2023/09/07 14:23:58;;;;;;;1.35;1.05;;;;;;;;;;5071723;28;20021;-82
2023/09/07 14:26:23;;;;;;;3.38;1.42;;;;;;;;;;5057022;28;20039;-82
2023/09/07 14:28:50;;;;;;;5.47;1.27;;;;;;;;;;5045239;28;20135;-83
2023/09/07 14:31:15;;;;;;;1.23;1.08;;;;;;;;;;5071097;28;20059;-82
2023/09/07 14:33:42;;;;;;;5.97;1.55;;;;;;;;;;5071496;28;20047;-82
2023/09/07 14:36:08;;;;;;;3.22;1.73;;;;;;;;;;5052477;28;20423;-82
2023/09/07 14:38:40;;;;;;;1.75;1.23;;;;;;;;;;5070303;28;20023;-82
2023/09/07 14:41:06;;;;;;;2.95;2.08;;;;;;;;;;5052758;28;20064;-82
2023/09/07 14:43:31;;;;;;;2.47;1.70;;;;;;;;;;5052174;28;20055;-83
2023/09/07 14:45:56;;;;;;;1.63;1.45;;;;;;;;;;5069047;28;20021;-82
2023/09/07 14:48:22;;;;;;;2.50;1.58;;;;;;;;;;5048981;28;20050;-85
2023/09/07 14:50:48;;;;;;;1.48;1.33;;;;;;;;;;5053097;28;20426;-84
2023/09/07 14:53:13;;;;;;;3.53;2.15;;;;;;;;;;5068570;28;20040;-82
2023/09/07 14:55:38;;;;;;;5.15;2.60;;;;;;;;;;5070839;28;20028;-82
2023/09/07 14:58:04;;;;;;;10.48;1.88;;;;;;;;;;5048710;28;20028;-81
2023/09/07 15:00:32;;;;;;;2.05;1.33;;;;;;;;;;5070979;28;20028;-83
2023/09/07 15:02:58;;;;;;;2.22;1.55;;;;;;;;;;5072542;28;20094;-84
2023/09/07 15:05:24;;;;;;;2.35;1.55;;;;;;;;;;5046835;28;20028;-82
2023/09/07 15:07:49;;;;;;;2.15;1.45;;;;;;;;;;5053492;28;20036;-82
2023/09/07 15:10:15;;;;;;;1.73;1.27;;;;;;;;;;5069839;28;20028;-83
2023/09/07 15:12:40;;;;;;;1.58;1.13;;;;;;;;;;5067472;28;20387;-82
2023/09/07 15:15:07;;;;;;;2.00;1.33;;;;;;;;;;5067618;28;20028;-83
2023/09/07 15:17:36;;;;;;;1.33;1.23;;;;;;;;;;5067321;28;20028;-82
2023/09/07 15:20:03;;;;;;;4.00;2.08;;;;;;;;;;5065446;28;20466;-83
